EXS104V EGGW-LERS
Flight info
| Callsign | EXS104V |
|---|---|
| Flight time | 1h 47m |
| Altitude | 33000 |
| Route | RODNI N27 ICTAM Q63 CPT UN859 SOPIL DCT BALAN DCT EVPOK DCT NARAK DCT GAI DCT LOMRA DCT ROCAN DCT PUMAL/N0403F230 N31 BERGA |
| Aircraft | A321/M-SDE3FGHIRWY/LB1 |
Departure
| Time | 2026-05-07 09:26 |
|---|---|
| Airport | London Luton Airport (EGGW) |
Arrival
| Time | 2026-05-07 11:13 |
|---|---|
| Airport | Reus Airport (LERS) |
| Time | Latitude | Longitude | Altitude | Speed | Heading |
|---|---|---|---|---|---|
| 2026-05-07 08:46 | 51.87990 | -0.37869 | 524 ft | 0 kts | 128° |
| 2026-05-07 09:12 | 51.87992 | -0.37874 | 523 ft | 3 kts | 128° |
| 2026-05-07 09:13 | 51.88007 | -0.37904 | 523 ft | 2 kts | 127° |
| 2026-05-07 09:13 | 51.88019 | -0.37924 | 523 ft | 4 kts | 189° |
| 2026-05-07 09:13 | 51.88039 | -0.37907 | 523 ft | 4 kts | 218° |
| 2026-05-07 09:13 | 51.88049 | -0.37895 | 523 ft | 0 kts | 218° |
| 2026-05-07 09:17 | 51.88048 | -0.37897 | 523 ft | 2 kts | 218° |
| 2026-05-07 09:17 | 51.88029 | -0.37921 | 523 ft | 5 kts | 218° |
| 2026-05-07 09:17 | 51.88001 | -0.37956 | 523 ft | 0 kts | 218° |
| 2026-05-07 09:18 | 51.87975 | -0.37986 | 523 ft | 10 kts | 212° |
| 2026-05-07 09:18 | 51.87879 | -0.38016 | 523 ft | 19 kts | 162° |
| 2026-05-07 09:18 | 51.87787 | -0.37872 | 523 ft | 20 kts | 118° |
| 2026-05-07 09:18 | 51.87742 | -0.37714 | 522 ft | 21 kts | 113° |
| 2026-05-07 09:19 | 51.87665 | -0.37494 | 521 ft | 13 kts | 152° |
| 2026-05-07 09:19 | 51.87650 | -0.37482 | 522 ft | 5 kts | 152° |
| 2026-05-07 09:19 | 51.87582 | -0.37456 | 522 ft | 15 kts | 179° |
| 2026-05-07 09:19 | 51.87491 | -0.37597 | 523 ft | 24 kts | 258° |
| 2026-05-07 09:20 | 51.87453 | -0.37833 | 523 ft | 19 kts | 255° |
| 2026-05-07 09:20 | 51.87402 | -0.38031 | 524 ft | 19 kts | 225° |
| 2026-05-07 09:20 | 51.87355 | -0.38077 | 523 ft | 0 kts | 207° |
| 2026-05-07 09:23 | 51.87332 | -0.38095 | 522 ft | 9 kts | 202° |
| 2026-05-07 09:24 | 51.87251 | -0.38098 | 524 ft | 11 kts | 136° |
| 2026-05-07 09:24 | 51.87259 | -0.38016 | 524 ft | 0 kts | 74° |
| 2026-05-07 09:25 | 51.87260 | -0.38016 | 524 ft | 1 kts | 74° |
| 2026-05-07 09:25 | 51.87308 | -0.37732 | 523 ft | 69 kts | 75° |
| 2026-05-07 09:26 | 51.87508 | -0.36568 | 527 ft | 142 kts | 75° |
| 2026-05-07 09:26 | 51.87798 | -0.34848 | 952 ft | 164 kts | 77° |
| 2026-05-07 09:26 | 51.88098 | -0.33033 | 1730 ft | 170 kts | 77° |
| 2026-05-07 09:26 | 51.88433 | -0.31092 | 2303 ft | 191 kts | 75° |
| 2026-05-07 09:27 | 51.88831 | -0.28889 | 2877 ft | 217 kts | 75° |
| 2026-05-07 09:27 | 51.89188 | -0.26383 | 3549 ft | 241 kts | 91° |
| 2026-05-07 09:27 | 51.87258 | -0.22138 | 5386 ft | 257 kts | 165° |
| 2026-05-07 09:28 | 51.85474 | -0.22173 | 6471 ft | 262 kts | 199° |
| 2026-05-07 09:28 | 51.83971 | -0.23834 | 7182 ft | 269 kts | 232° |
| 2026-05-07 09:28 | 51.83169 | -0.26586 | 7832 ft | 275 kts | 254° |
| 2026-05-07 09:28 | 51.82795 | -0.29643 | 8518 ft | 279 kts | 261° |
| 2026-05-07 09:29 | 51.82544 | -0.32777 | 9181 ft | 283 kts | 262° |
| 2026-05-07 09:29 | 51.82277 | -0.35944 | 9853 ft | 286 kts | 261° |
| 2026-05-07 09:29 | 51.81941 | -0.39148 | 10340 ft | 296 kts | 257° |
| 2026-05-07 09:29 | 51.81166 | -0.42345 | 10466 ft | 317 kts | 244° |
| 2026-05-07 09:30 | 51.80153 | -0.45638 | 10604 ft | 337 kts | 243° |
| 2026-05-07 09:30 | 51.79081 | -0.49078 | 10998 ft | 346 kts | 243° |
| 2026-05-07 09:30 | 51.77985 | -0.52561 | 11599 ft | 350 kts | 243° |
| 2026-05-07 09:30 | 51.76869 | -0.56079 | 12231 ft | 352 kts | 243° |
| 2026-05-07 09:31 | 51.75750 | -0.59604 | 12860 ft | 355 kts | 243° |
| 2026-05-07 09:31 | 51.74616 | -0.63177 | 13483 ft | 358 kts | 243° |
| 2026-05-07 09:31 | 51.73474 | -0.66773 | 14102 ft | 361 kts | 243° |
| 2026-05-07 09:31 | 51.72341 | -0.70347 | 14656 ft | 364 kts | 242° |
| 2026-05-07 09:32 | 51.71186 | -0.73987 | 15229 ft | 366 kts | 243° |
| 2026-05-07 09:32 | 51.70024 | -0.77644 | 15794 ft | 368 kts | 242° |
| 2026-05-07 09:32 | 51.68849 | -0.81332 | 16033 ft | 370 kts | 242° |
| 2026-05-07 09:32 | 51.67672 | -0.85023 | 16078 ft | 369 kts | 242° |
| 2026-05-07 09:33 | 51.66496 | -0.88701 | 16081 ft | 369 kts | 242° |
| 2026-05-07 09:33 | 51.65318 | -0.92373 | 16084 ft | 369 kts | 242° |
| 2026-05-07 09:33 | 51.64520 | -0.94853 | 16083 ft | 369 kts | 242° |
| 2026-05-07 09:33 | 51.63310 | -0.98498 | 16083 ft | 369 kts | 238° |
| 2026-05-07 09:34 | 51.61810 | -1.01771 | 16083 ft | 369 kts | 227° |
| 2026-05-07 09:34 | 51.60003 | -1.04713 | 16085 ft | 368 kts | 224° |
| 2026-05-07 09:34 | 51.58181 | -1.07610 | 16084 ft | 368 kts | 224° |
| 2026-05-07 09:34 | 51.56357 | -1.10511 | 16338 ft | 371 kts | 224° |
| 2026-05-07 09:35 | 51.54459 | -1.13362 | 16903 ft | 373 kts | 218° |
| 2026-05-07 09:35 | 51.52285 | -1.15654 | 17429 ft | 376 kts | 207° |
| 2026-05-07 09:35 | 51.49856 | -1.17264 | 17952 ft | 379 kts | 197° |
| 2026-05-07 09:35 | 51.47258 | -1.18046 | 18436 ft | 383 kts | 184° |
| 2026-05-07 09:36 | 51.44596 | -1.17878 | 18860 ft | 386 kts | 171° |
| 2026-05-07 09:36 | 51.41999 | -1.16716 | 19295 ft | 389 kts | 158° |
| 2026-05-07 09:36 | 51.39528 | -1.14907 | 19724 ft | 392 kts | 156° |
| 2026-05-07 09:36 | 51.37046 | -1.13064 | 20160 ft | 394 kts | 156° |
| 2026-05-07 09:37 | 51.34546 | -1.11217 | 20599 ft | 397 kts | 156° |
| 2026-05-07 09:37 | 51.32031 | -1.09369 | 21032 ft | 399 kts | 156° |
| 2026-05-07 09:37 | 51.29527 | -1.07537 | 21450 ft | 402 kts | 156° |
| 2026-05-07 09:37 | 51.26971 | -1.05671 | 21877 ft | 404 kts | 156° |
| 2026-05-07 09:38 | 51.24403 | -1.03796 | 22284 ft | 407 kts | 156° |
| 2026-05-07 09:38 | 51.21822 | -1.01913 | 22699 ft | 409 kts | 156° |
| 2026-05-07 09:38 | 51.19226 | -1.00017 | 23095 ft | 412 kts | 156° |
| 2026-05-07 09:38 | 51.16609 | -0.98111 | 23487 ft | 415 kts | 156° |
| 2026-05-07 09:39 | 51.13972 | -0.96197 | 23843 ft | 417 kts | 156° |
| 2026-05-07 09:39 | 51.11319 | -0.94271 | 24175 ft | 420 kts | 156° |
| 2026-05-07 09:39 | 51.08656 | -0.92339 | 24508 ft | 422 kts | 156° |
| 2026-05-07 09:39 | 51.05976 | -0.90394 | 24843 ft | 424 kts | 156° |
| 2026-05-07 09:40 | 51.03282 | -0.88447 | 25166 ft | 426 kts | 156° |
| 2026-05-07 09:40 | 51.00575 | -0.86497 | 25498 ft | 428 kts | 156° |
| 2026-05-07 09:40 | 50.97884 | -0.84562 | 25799 ft | 430 kts | 156° |
| 2026-05-07 09:40 | 50.95152 | -0.82596 | 26120 ft | 433 kts | 156° |
| 2026-05-07 09:41 | 50.92367 | -0.80591 | 26437 ft | 435 kts | 156° |
| 2026-05-07 09:41 | 50.89646 | -0.78633 | 26743 ft | 437 kts | 156° |
| 2026-05-07 09:41 | 50.86865 | -0.76628 | 27052 ft | 439 kts | 156° |
| 2026-05-07 09:41 | 50.84171 | -0.74293 | 27338 ft | 442 kts | 148° |
| 2026-05-07 09:42 | 50.81582 | -0.71644 | 27643 ft | 444 kts | 148° |
| 2026-05-07 09:42 | 50.78980 | -0.68993 | 27932 ft | 446 kts | 148° |
| 2026-05-07 09:42 | 50.76359 | -0.66333 | 28199 ft | 448 kts | 148° |
| 2026-05-07 09:42 | 50.73722 | -0.63660 | 28472 ft | 450 kts | 149° |
| 2026-05-07 09:43 | 50.71080 | -0.60983 | 28747 ft | 452 kts | 149° |
| 2026-05-07 09:43 | 50.68461 | -0.58330 | 29007 ft | 454 kts | 149° |
| 2026-05-07 09:43 | 50.65794 | -0.55630 | 29264 ft | 457 kts | 149° |
| 2026-05-07 09:43 | 50.63081 | -0.52885 | 29542 ft | 458 kts | 149° |
| 2026-05-07 09:44 | 50.60425 | -0.50200 | 29796 ft | 460 kts | 149° |
| 2026-05-07 09:44 | 50.57729 | -0.47477 | 30135 ft | 460 kts | 149° |
| 2026-05-07 09:44 | 50.55039 | -0.44770 | 30448 ft | 459 kts | 149° |
| 2026-05-07 09:44 | 50.52340 | -0.42066 | 30762 ft | 459 kts | 149° |
| 2026-05-07 09:45 | 50.49649 | -0.39372 | 31083 ft | 458 kts | 149° |
| 2026-05-07 09:45 | 50.46963 | -0.36680 | 31404 ft | 457 kts | 149° |
| 2026-05-07 09:45 | 50.44285 | -0.33993 | 31723 ft | 457 kts | 149° |
| 2026-05-07 09:45 | 50.41610 | -0.31316 | 32049 ft | 456 kts | 149° |
| 2026-05-07 09:46 | 50.38937 | -0.28649 | 32369 ft | 455 kts | 149° |
| 2026-05-07 09:46 | 50.36267 | -0.25991 | 32668 ft | 454 kts | 149° |
| 2026-05-07 09:46 | 50.33604 | -0.23341 | 32998 ft | 454 kts | 149° |
| 2026-05-07 09:47 | 50.28316 | -0.18087 | 33089 ft | 445 kts | 149° |
| 2026-05-07 09:47 | 50.23090 | -0.12905 | 33090 ft | 443 kts | 149° |
| 2026-05-07 09:48 | 50.17870 | -0.07749 | 33088 ft | 443 kts | 149° |
| 2026-05-07 09:48 | 50.12657 | -0.02612 | 33090 ft | 443 kts | 150° |
| 2026-05-07 09:49 | 50.07042 | 0.01179 | 33085 ft | 438 kts | 168° |
| 2026-05-07 09:49 | 50.01125 | 0.03478 | 33081 ft | 438 kts | 168° |
| 2026-05-07 09:50 | 49.95241 | 0.05791 | 33077 ft | 439 kts | 168° |
| 2026-05-07 09:50 | 49.89315 | 0.08132 | 33072 ft | 439 kts | 168° |
| 2026-05-07 09:51 | 49.83405 | 0.10464 | 33069 ft | 439 kts | 168° |
| 2026-05-07 09:51 | 49.77480 | 0.12787 | 33070 ft | 439 kts | 168° |
| 2026-05-07 09:52 | 49.71541 | 0.15092 | 33072 ft | 439 kts | 168° |
| 2026-05-07 09:52 | 49.65613 | 0.17396 | 33070 ft | 439 kts | 168° |
| 2026-05-07 09:53 | 49.59696 | 0.19777 | 33069 ft | 439 kts | 167° |
| 2026-05-07 09:53 | 49.53817 | 0.22171 | 33069 ft | 439 kts | 167° |
| 2026-05-07 09:54 | 49.47901 | 0.24557 | 33068 ft | 439 kts | 167° |
| 2026-05-07 09:54 | 49.41984 | 0.26925 | 33071 ft | 439 kts | 167° |
| 2026-05-07 09:55 | 49.36067 | 0.29287 | 33069 ft | 439 kts | 167° |
| 2026-05-07 09:55 | 49.30154 | 0.31643 | 33074 ft | 439 kts | 167° |
| 2026-05-07 09:56 | 49.24247 | 0.34092 | 33075 ft | 439 kts | 166° |
| 2026-05-07 09:56 | 49.18360 | 0.36602 | 33079 ft | 439 kts | 166° |
| 2026-05-07 09:57 | 49.12469 | 0.39109 | 33080 ft | 439 kts | 166° |
| 2026-05-07 09:57 | 49.06609 | 0.41567 | 33095 ft | 439 kts | 166° |
| 2026-05-07 09:58 | 49.00716 | 0.44029 | 33089 ft | 439 kts | 166° |
| 2026-05-07 09:58 | 48.94828 | 0.46489 | 33079 ft | 439 kts | 166° |
| 2026-05-07 09:59 | 48.88945 | 0.48928 | 33080 ft | 438 kts | 166° |
| 2026-05-07 09:59 | 48.83060 | 0.51368 | 33083 ft | 438 kts | 166° |
| 2026-05-07 10:00 | 48.77178 | 0.53799 | 33083 ft | 438 kts | 167° |
| 2026-05-07 10:00 | 48.71275 | 0.56140 | 33078 ft | 438 kts | 167° |
| 2026-05-07 10:01 | 48.65368 | 0.58412 | 33089 ft | 438 kts | 167° |
| 2026-05-07 10:01 | 48.59495 | 0.60676 | 33080 ft | 438 kts | 167° |
| 2026-05-07 10:02 | 48.53584 | 0.62974 | 33081 ft | 438 kts | 167° |
| 2026-05-07 10:02 | 48.47694 | 0.65320 | 33087 ft | 438 kts | 166° |
| 2026-05-07 10:03 | 48.41818 | 0.67743 | 33082 ft | 438 kts | 166° |
| 2026-05-07 10:03 | 48.35942 | 0.70148 | 33082 ft | 437 kts | 166° |
| 2026-05-07 10:04 | 48.30060 | 0.72526 | 33078 ft | 437 kts | 167° |
| 2026-05-07 10:04 | 48.24177 | 0.74894 | 33069 ft | 438 kts | 167° |
| 2026-05-07 10:05 | 48.18326 | 0.77210 | 33075 ft | 437 kts | 167° |
| 2026-05-07 10:05 | 48.12438 | 0.79517 | 33078 ft | 437 kts | 167° |
| 2026-05-07 10:06 | 48.06534 | 0.81833 | 33075 ft | 437 kts | 167° |
| 2026-05-07 10:06 | 48.00676 | 0.84116 | 33075 ft | 437 kts | 167° |
| 2026-05-07 10:07 | 47.94789 | 0.86405 | 33075 ft | 437 kts | 167° |
| 2026-05-07 10:07 | 47.88899 | 0.88701 | 33064 ft | 437 kts | 167° |
| 2026-05-07 10:08 | 47.83005 | 0.90988 | 33064 ft | 437 kts | 167° |
| 2026-05-07 10:08 | 47.77114 | 0.93285 | 33060 ft | 437 kts | 167° |
| 2026-05-07 10:09 | 47.71261 | 0.95552 | 33057 ft | 437 kts | 167° |
| 2026-05-07 10:09 | 47.65377 | 0.97821 | 33055 ft | 437 kts | 167° |
| 2026-05-07 10:10 | 47.59487 | 1.00089 | 33044 ft | 437 kts | 167° |
| 2026-05-07 10:10 | 47.53600 | 1.02351 | 33048 ft | 437 kts | 167° |
| 2026-05-07 10:11 | 47.47708 | 1.04597 | 33048 ft | 437 kts | 167° |
| 2026-05-07 10:11 | 47.41755 | 1.06337 | 33035 ft | 434 kts | 179° |
| 2026-05-07 10:12 | 47.35735 | 1.06280 | 33035 ft | 433 kts | 182° |
| 2026-05-07 10:12 | 47.29744 | 1.06137 | 33047 ft | 433 kts | 182° |
| 2026-05-07 10:13 | 47.23714 | 1.05990 | 33038 ft | 433 kts | 182° |
| 2026-05-07 10:13 | 47.17624 | 1.05845 | 33059 ft | 443 kts | 182° |
| 2026-05-07 10:14 | 47.11405 | 1.05700 | 33057 ft | 448 kts | 182° |
| 2026-05-07 10:14 | 47.05160 | 1.05553 | 33058 ft | 449 kts | 182° |
| 2026-05-07 10:15 | 46.98921 | 1.05383 | 33057 ft | 449 kts | 183° |
| 2026-05-07 10:15 | 46.92681 | 1.05113 | 33054 ft | 449 kts | 183° |
| 2026-05-07 10:16 | 46.86436 | 1.04822 | 33055 ft | 449 kts | 183° |
| 2026-05-07 10:16 | 46.80240 | 1.04549 | 33051 ft | 448 kts | 183° |
| 2026-05-07 10:17 | 46.73998 | 1.04279 | 33053 ft | 449 kts | 183° |
| 2026-05-07 10:17 | 46.67756 | 1.04017 | 33050 ft | 449 kts | 183° |
| 2026-05-07 10:18 | 46.61511 | 1.03746 | 33047 ft | 449 kts | 183° |
| 2026-05-07 10:18 | 46.55266 | 1.03487 | 33046 ft | 449 kts | 183° |
| 2026-05-07 10:19 | 46.49041 | 1.04175 | 33041 ft | 452 kts | 169° |
| 2026-05-07 10:19 | 46.42955 | 1.06216 | 33046 ft | 452 kts | 169° |
| 2026-05-07 10:20 | 46.36824 | 1.08264 | 33036 ft | 452 kts | 169° |
| 2026-05-07 10:20 | 46.30696 | 1.10318 | 33030 ft | 452 kts | 169° |
| 2026-05-07 10:21 | 46.25559 | 1.12033 | 33032 ft | 452 kts | 169° |
| 2026-05-07 10:21 | 46.19432 | 1.14064 | 33021 ft | 452 kts | 169° |
| 2026-05-07 10:22 | 46.13346 | 1.16074 | 33017 ft | 452 kts | 169° |
| 2026-05-07 10:22 | 46.07217 | 1.18101 | 33017 ft | 452 kts | 169° |
| 2026-05-07 10:23 | 46.01087 | 1.20127 | 33019 ft | 452 kts | 169° |
| 2026-05-07 10:23 | 45.94960 | 1.22146 | 33027 ft | 452 kts | 169° |
| 2026-05-07 10:24 | 45.88826 | 1.24153 | 33020 ft | 451 kts | 169° |
| 2026-05-07 10:24 | 45.82704 | 1.26157 | 33025 ft | 452 kts | 169° |
| 2026-05-07 10:25 | 45.76603 | 1.28153 | 33021 ft | 452 kts | 169° |
| 2026-05-07 10:25 | 45.70472 | 1.30147 | 33025 ft | 452 kts | 169° |
| 2026-05-07 10:26 | 45.64324 | 1.32143 | 33022 ft | 452 kts | 169° |
| 2026-05-07 10:26 | 45.58190 | 1.34137 | 33023 ft | 452 kts | 169° |
| 2026-05-07 10:27 | 45.52095 | 1.36112 | 33003 ft | 452 kts | 170° |
| 2026-05-07 10:27 | 45.45956 | 1.38092 | 33016 ft | 452 kts | 170° |
| 2026-05-07 10:28 | 45.39812 | 1.40069 | 33014 ft | 452 kts | 170° |
| 2026-05-07 10:28 | 45.33700 | 1.42035 | 33010 ft | 453 kts | 170° |
| 2026-05-07 10:29 | 45.27551 | 1.44014 | 33013 ft | 453 kts | 170° |
| 2026-05-07 10:29 | 45.21359 | 1.45993 | 33022 ft | 453 kts | 170° |
| 2026-05-07 10:30 | 45.12147 | 1.48923 | 33018 ft | 453 kts | 171° |
| 2026-05-07 10:30 | 45.05989 | 1.50891 | 33025 ft | 454 kts | 170° |
| 2026-05-07 10:31 | 44.99819 | 1.52863 | 33031 ft | 454 kts | 171° |
| 2026-05-07 10:31 | 44.93695 | 1.54803 | 33019 ft | 454 kts | 171° |
| 2026-05-07 10:32 | 44.87521 | 1.56746 | 33023 ft | 454 kts | 171° |
| 2026-05-07 10:32 | 44.81355 | 1.58692 | 33017 ft | 454 kts | 171° |
| 2026-05-07 10:33 | 44.75182 | 1.60648 | 33019 ft | 454 kts | 171° |
| 2026-05-07 10:33 | 44.69018 | 1.62580 | 33027 ft | 454 kts | 171° |
| 2026-05-07 10:34 | 44.62857 | 1.64506 | 33021 ft | 453 kts | 171° |
| 2026-05-07 10:34 | 44.56744 | 1.66423 | 33018 ft | 453 kts | 171° |
| 2026-05-07 10:35 | 44.50583 | 1.68342 | 33025 ft | 453 kts | 171° |
| 2026-05-07 10:35 | 44.44430 | 1.70257 | 33027 ft | 453 kts | 171° |
| 2026-05-07 10:36 | 44.38281 | 1.72176 | 33032 ft | 452 kts | 171° |
| 2026-05-07 10:36 | 44.32137 | 1.74085 | 33033 ft | 452 kts | 171° |
| 2026-05-07 10:37 | 44.25991 | 1.75850 | 33038 ft | 450 kts | 174° |
| 2026-05-07 10:37 | 44.19858 | 1.77184 | 33035 ft | 449 kts | 175° |
| 2026-05-07 10:38 | 44.13680 | 1.78419 | 33041 ft | 448 kts | 175° |
| 2026-05-07 10:38 | 44.07509 | 1.79729 | 33039 ft | 449 kts | 175° |
| 2026-05-07 10:39 | 44.01344 | 1.81101 | 33043 ft | 448 kts | 175° |
| 2026-05-07 10:39 | 43.95181 | 1.82450 | 33041 ft | 447 kts | 176° |
| 2026-05-07 10:40 | 43.89012 | 1.83299 | 33047 ft | 444 kts | 180° |
| 2026-05-07 10:40 | 43.82841 | 1.83750 | 33046 ft | 443 kts | 181° |
| 2026-05-07 10:41 | 43.76680 | 1.84220 | 33050 ft | 443 kts | 181° |
| 2026-05-07 10:41 | 43.70521 | 1.84801 | 33049 ft | 443 kts | 180° |
| 2026-05-07 10:42 | 43.64369 | 1.85422 | 33050 ft | 443 kts | 180° |
| 2026-05-07 10:42 | 43.58222 | 1.86033 | 33052 ft | 442 kts | 180° |
| 2026-05-07 10:43 | 43.52087 | 1.86620 | 33053 ft | 442 kts | 181° |
| 2026-05-07 10:43 | 43.45962 | 1.87202 | 33045 ft | 441 kts | 181° |
| 2026-05-07 10:44 | 43.39839 | 1.87787 | 33040 ft | 440 kts | 181° |
| 2026-05-07 10:44 | 43.33728 | 1.88369 | 33038 ft | 440 kts | 181° |
| 2026-05-07 10:45 | 43.27623 | 1.88955 | 33044 ft | 439 kts | 181° |
| 2026-05-07 10:45 | 43.21566 | 1.89531 | 33030 ft | 439 kts | 181° |
| 2026-05-07 10:46 | 43.15477 | 1.90110 | 33038 ft | 438 kts | 181° |
| 2026-05-07 10:46 | 43.09394 | 1.90688 | 33030 ft | 438 kts | 181° |
| 2026-05-07 10:47 | 43.03326 | 1.91264 | 33024 ft | 437 kts | 181° |
| 2026-05-07 10:47 | 42.97260 | 1.91841 | 33018 ft | 437 kts | 181° |
| 2026-05-07 10:48 | 42.91200 | 1.92418 | 33012 ft | 436 kts | 181° |
| 2026-05-07 10:48 | 42.85144 | 1.92989 | 33011 ft | 436 kts | 181° |
| 2026-05-07 10:49 | 42.79097 | 1.93562 | 33003 ft | 435 kts | 181° |
| 2026-05-07 10:49 | 42.73053 | 1.94134 | 33001 ft | 435 kts | 181° |
| 2026-05-07 10:50 | 42.67022 | 1.94707 | 32996 ft | 435 kts | 181° |
| 2026-05-07 10:50 | 42.61002 | 1.95718 | 32989 ft | 438 kts | 177° |
| 2026-05-07 10:51 | 42.54993 | 1.97070 | 32682 ft | 435 kts | 176° |
| 2026-05-07 10:51 | 42.52055 | 1.97736 | 32181 ft | 431 kts | 177° |
| 2026-05-07 10:51 | 42.49114 | 1.98375 | 31682 ft | 426 kts | 178° |
| 2026-05-07 10:52 | 42.46190 | 1.98943 | 31178 ft | 421 kts | 179° |
| 2026-05-07 10:52 | 42.43299 | 1.99420 | 30685 ft | 416 kts | 180° |
| 2026-05-07 10:52 | 42.40436 | 1.99836 | 30207 ft | 412 kts | 181° |
| 2026-05-07 10:52 | 42.37587 | 2.00224 | 29686 ft | 409 kts | 181° |
| 2026-05-07 10:53 | 42.34772 | 2.00604 | 29134 ft | 405 kts | 181° |
| 2026-05-07 10:53 | 42.31976 | 2.00992 | 28604 ft | 401 kts | 181° |
| 2026-05-07 10:53 | 42.29212 | 2.01391 | 28078 ft | 398 kts | 180° |
| 2026-05-07 10:53 | 42.26468 | 2.01798 | 27556 ft | 395 kts | 180° |
| 2026-05-07 10:54 | 42.23749 | 2.02210 | 27048 ft | 392 kts | 180° |
| 2026-05-07 10:54 | 42.21065 | 2.02385 | 26542 ft | 381 kts | 189° |
| 2026-05-07 10:54 | 42.18487 | 2.01866 | 26013 ft | 370 kts | 200° |
| 2026-05-07 10:54 | 42.16101 | 2.00699 | 25491 ft | 361 kts | 210° |
| 2026-05-07 10:55 | 42.13972 | 1.98984 | 24963 ft | 354 kts | 220° |
| 2026-05-07 10:55 | 42.12129 | 1.96831 | 24474 ft | 349 kts | 226° |
| 2026-05-07 10:55 | 42.10368 | 1.94591 | 23980 ft | 347 kts | 225° |
| 2026-05-07 10:55 | 42.08617 | 1.92373 | 23502 ft | 345 kts | 225° |
| 2026-05-07 10:56 | 42.06871 | 1.90167 | 22896 ft | 343 kts | 225° |
| 2026-05-07 10:56 | 42.05132 | 1.87974 | 22290 ft | 343 kts | 225° |
| 2026-05-07 10:56 | 42.03386 | 1.85780 | 21687 ft | 343 kts | 225° |
| 2026-05-07 10:56 | 42.01646 | 1.83594 | 21088 ft | 342 kts | 225° |
| 2026-05-07 10:57 | 41.99906 | 1.81407 | 20515 ft | 343 kts | 225° |
| 2026-05-07 10:57 | 41.98185 | 1.79244 | 19971 ft | 343 kts | 225° |
| 2026-05-07 10:57 | 41.96417 | 1.77030 | 19421 ft | 343 kts | 223° |
| 2026-05-07 10:57 | 41.94540 | 1.75098 | 18902 ft | 345 kts | 218° |
| 2026-05-07 10:58 | 41.92556 | 1.73202 | 18386 ft | 346 kts | 218° |
| 2026-05-07 10:58 | 41.90620 | 1.71355 | 17855 ft | 346 kts | 218° |
| 2026-05-07 10:58 | 41.88660 | 1.69489 | 17352 ft | 345 kts | 218° |
| 2026-05-07 10:58 | 41.86711 | 1.67634 | 16895 ft | 342 kts | 218° |
| 2026-05-07 10:59 | 41.84773 | 1.65786 | 16407 ft | 340 kts | 217° |
| 2026-05-07 10:59 | 41.82849 | 1.63951 | 15953 ft | 338 kts | 218° |
| 2026-05-07 10:59 | 41.80937 | 1.62131 | 15486 ft | 336 kts | 218° |
| 2026-05-07 10:59 | 41.79032 | 1.60324 | 15035 ft | 335 kts | 218° |
| 2026-05-07 11:00 | 41.77134 | 1.58522 | 14595 ft | 333 kts | 218° |
| 2026-05-07 11:00 | 41.75244 | 1.56730 | 14153 ft | 332 kts | 218° |
| 2026-05-07 11:00 | 41.73256 | 1.55159 | 13707 ft | 333 kts | 205° |
| 2026-05-07 11:00 | 41.71021 | 1.54337 | 13255 ft | 334 kts | 193° |
| 2026-05-07 11:01 | 41.68737 | 1.53762 | 12793 ft | 333 kts | 193° |
| 2026-05-07 11:01 | 41.66463 | 1.53186 | 12371 ft | 331 kts | 193° |
| 2026-05-07 11:01 | 41.64191 | 1.52605 | 11803 ft | 333 kts | 193° |
| 2026-05-07 11:01 | 41.61903 | 1.52019 | 11241 ft | 336 kts | 193° |
| 2026-05-07 11:02 | 41.59608 | 1.51430 | 10695 ft | 337 kts | 193° |
| 2026-05-07 11:02 | 41.57300 | 1.50840 | 10161 ft | 338 kts | 193° |
| 2026-05-07 11:02 | 41.55001 | 1.50354 | 9601 ft | 340 kts | 185° |
| 2026-05-07 11:02 | 41.52636 | 1.50622 | 9023 ft | 344 kts | 173° |
| 2026-05-07 11:03 | 41.50283 | 1.51158 | 8440 ft | 339 kts | 172° |
| 2026-05-07 11:03 | 41.47990 | 1.51680 | 7881 ft | 330 kts | 173° |
| 2026-05-07 11:03 | 41.45756 | 1.52189 | 7332 ft | 321 kts | 172° |
| 2026-05-07 11:03 | 41.43581 | 1.52684 | 6786 ft | 314 kts | 173° |
| 2026-05-07 11:04 | 41.41446 | 1.53167 | 6245 ft | 308 kts | 173° |
| 2026-05-07 11:04 | 41.39342 | 1.53640 | 6005 ft | 306 kts | 173° |
| 2026-05-07 11:04 | 41.37242 | 1.54109 | 5877 ft | 306 kts | 173° |
| 2026-05-07 11:04 | 41.35151 | 1.54438 | 5596 ft | 298 kts | 184° |
| 2026-05-07 11:05 | 41.33165 | 1.53984 | 5470 ft | 281 kts | 201° |
| 2026-05-07 11:05 | 41.31427 | 1.52950 | 5348 ft | 268 kts | 208° |
| 2026-05-07 11:05 | 41.29801 | 1.51912 | 5251 ft | 251 kts | 207° |
| 2026-05-07 11:05 | 41.28376 | 1.51004 | 5122 ft | 239 kts | 208° |
| 2026-05-07 11:06 | 41.26933 | 1.50087 | 4999 ft | 226 kts | 208° |
| 2026-05-07 11:06 | 41.25568 | 1.49218 | 4899 ft | 208 kts | 208° |
| 2026-05-07 11:06 | 41.24444 | 1.48271 | 4791 ft | 177 kts | 223° |
| 2026-05-07 11:06 | 41.23710 | 1.47119 | 4668 ft | 152 kts | 244° |
| 2026-05-07 11:07 | 41.23265 | 1.45925 | 4492 ft | 141 kts | 248° |
| 2026-05-07 11:07 | 41.22880 | 1.44736 | 4209 ft | 140 kts | 250° |
| 2026-05-07 11:07 | 41.22513 | 1.43533 | 3982 ft | 140 kts | 250° |
| 2026-05-07 11:07 | 41.22156 | 1.42327 | 3794 ft | 141 kts | 251° |
| 2026-05-07 11:08 | 41.21807 | 1.41131 | 3636 ft | 136 kts | 251° |
| 2026-05-07 11:08 | 41.21469 | 1.39965 | 3458 ft | 135 kts | 251° |
| 2026-05-07 11:08 | 41.21244 | 1.39189 | 3336 ft | 135 kts | 251° |
| 2026-05-07 11:08 | 41.20908 | 1.38024 | 3139 ft | 135 kts | 250° |
| 2026-05-07 11:09 | 41.20571 | 1.36859 | 2885 ft | 137 kts | 251° |
| 2026-05-07 11:09 | 41.20234 | 1.35689 | 2690 ft | 134 kts | 250° |
| 2026-05-07 11:09 | 41.19899 | 1.34530 | 2393 ft | 135 kts | 250° |
| 2026-05-07 11:09 | 41.19565 | 1.33374 | 2166 ft | 134 kts | 251° |
| 2026-05-07 11:10 | 41.19235 | 1.32231 | 2049 ft | 133 kts | 250° |
| 2026-05-07 11:10 | 41.18894 | 1.31053 | 2012 ft | 137 kts | 250° |
| 2026-05-07 11:10 | 41.18547 | 1.29853 | 1997 ft | 139 kts | 250° |
| 2026-05-07 11:10 | 41.18205 | 1.28670 | 1759 ft | 138 kts | 250° |
| 2026-05-07 11:11 | 41.17863 | 1.27489 | 1635 ft | 138 kts | 249° |
| 2026-05-07 11:11 | 41.17518 | 1.26297 | 1521 ft | 140 kts | 249° |
| 2026-05-07 11:11 | 41.17171 | 1.25099 | 1367 ft | 139 kts | 249° |
| 2026-05-07 11:11 | 41.16821 | 1.23894 | 1197 ft | 141 kts | 247° |
| 2026-05-07 11:12 | 41.16465 | 1.22665 | 999 ft | 142 kts | 247° |
| 2026-05-07 11:12 | 41.16105 | 1.21421 | 804 ft | 146 kts | 246° |
| 2026-05-07 11:12 | 41.15741 | 1.20148 | 596 ft | 150 kts | 246° |
| 2026-05-07 11:12 | 41.15373 | 1.18859 | 395 ft | 149 kts | 246° |
| 2026-05-07 11:13 | 41.14999 | 1.17598 | 247 ft | 141 kts | 245° |
| 2026-05-07 11:13 | 41.14689 | 1.16546 | 244 ft | 78 kts | 249° |
| 2026-05-07 11:13 | 41.14583 | 1.16183 | 244 ft | 21 kts | 249° |
| 2026-05-07 11:13 | 41.14533 | 1.16012 | 244 ft | 19 kts | 249° |
| 2026-05-07 11:14 | 41.14568 | 1.15901 | 244 ft | 6 kts | 338° |
| 2026-05-07 11:14 | 41.14605 | 1.15882 | 244 ft | 0 kts | 338° |
| 2026-05-07 11:15 | 41.14607 | 1.15881 | 244 ft | 2 kts | 338° |
| 2026-05-07 11:15 | 41.14631 | 1.15868 | 244 ft | 6 kts | 338° |
| 2026-05-07 11:15 | 41.14649 | 1.15814 | 244 ft | 8 kts | 257° |
| 2026-05-07 11:15 | 41.14627 | 1.15729 | 244 ft | 11 kts | 252° |
| 2026-05-07 11:16 | 41.14595 | 1.15615 | 244 ft | 15 kts | 246° |
| 2026-05-07 11:16 | 41.14584 | 1.15583 | 244 ft | 2 kts | 248° |
| 2026-05-07 11:16 | 41.14585 | 1.15549 | 244 ft | 5 kts | 290° |
| 2026-05-07 11:16 | 41.14619 | 1.15516 | 244 ft | 8 kts | 337° |
| 2026-05-07 11:17 | 41.14646 | 1.15502 | 244 ft | 2 kts | 339° |
| 2026-05-07 11:17 | 41.14653 | 1.15498 | 244 ft | 0 kts | 339° |